createdAt,value
2022-08-29T00:00:18.238Z,81.95
2022-08-29T00:02:50.644Z,81.99
2022-08-29T00:05:19.858Z,81.42
2022-08-29T00:07:51.371Z,82.50
2022-08-29T00:10:17.932Z,82.75
2022-08-29T00:12:44.657Z,82.77
2022-08-29T00:15:12.672Z,83.81
2022-08-29T00:17:39.356Z,83.91
2022-08-29T00:20:08.630Z,83.79
2022-08-29T00:22:35.154Z,84.08
2022-08-29T00:25:04.708Z,84.32
2022-08-29T00:27:32.380Z,84.04
2022-08-29T00:29:58.829Z,84.44
2022-08-29T00:32:25.265Z,84.75
2022-08-29T00:34:52.620Z,84.40
2022-08-29T00:37:19.234Z,85.18
2022-08-29T00:39:45.605Z,85.30
2022-08-29T00:42:11.984Z,85.27
2022-08-29T00:44:38.357Z,86.56
2022-08-29T00:47:10.150Z,87.12
2022-08-29T00:49:39.349Z,87.00
2022-08-29T00:52:18.226Z,87.22
2022-08-29T00:54:49.932Z,88.69
2022-08-29T00:57:19.666Z,88.98
2022-08-29T00:59:48.104Z,89.81
2022-08-29T01:02:14.966Z,89.47
2022-08-29T01:04:41.444Z,90.09
2022-08-29T01:07:09.937Z,90.88
2022-08-29T01:09:38.334Z,90.82
2022-08-29T01:12:18.304Z,91.71
2022-08-29T01:14:56.365Z,92.54
2022-08-29T01:17:34.864Z,92.71
2022-08-29T01:20:14.601Z,92.51
2022-08-29T01:23:00.832Z,92.75
2022-08-29T01:25:32.412Z,92.22
2022-08-29T01:28:23.700Z,92.54
2022-08-29T01:31:10.453Z,93.04
2022-08-29T01:33:53.301Z,93.89
2022-08-29T01:36:23.182Z,94.30
2022-08-29T01:38:49.994Z,94.39
2022-08-29T01:41:20.910Z,95.12
2022-08-29T01:43:51.871Z,95.15
2022-08-29T01:46:23.068Z,95.80
2022-08-29T01:48:49.696Z,96.29
2022-08-29T01:51:17.362Z,96.11
2022-08-29T01:53:45.036Z,96.24
2022-08-29T01:56:13.231Z,96.67
2022-08-29T01:58:39.709Z,97.14
2022-08-29T02:01:07.103Z,97.95
2022-08-29T02:03:33.564Z,99.66
2022-08-29T02:06:01.761Z,99.45
2022-08-29T02:08:28.940Z,99.41
2022-08-29T02:10:55.869Z,98.77
2022-08-29T02:13:24.463Z,99.28
2022-08-29T02:15:51.913Z,99.94
2022-08-29T02:18:18.279Z,100.00
2022-08-29T02:20:45.243Z,100.00
2022-08-29T02:23:29.769Z,100.00
2022-08-29T02:25:57.281Z,100.00
2022-08-29T02:28:23.692Z,100.00
2022-08-29T02:30:56.900Z,100.00
2022-08-29T02:33:24.798Z,100.00
2022-08-29T02:35:51.722Z,100.00
2022-08-29T02:38:18.191Z,100.00
2022-08-29T02:40:45.726Z,100.00
2022-08-29T02:43:12.733Z,100.00
2022-08-29T02:45:41.203Z,100.00
2022-08-29T02:48:08.187Z,100.00
2022-08-29T02:50:35.111Z,100.00
2022-08-29T02:53:01.832Z,100.00
2022-08-29T02:55:28.344Z,100.00
2022-08-29T02:57:54.849Z,100.00
2022-08-29T03:00:25.391Z,100.00
2022-08-29T03:02:53.074Z,100.00
2022-08-29T03:05:23.236Z,100.00
2022-08-29T03:07:51.058Z,100.00
2022-08-29T03:10:17.748Z,100.00
2022-08-29T03:12:44.724Z,100.00
2022-08-29T03:15:12.446Z,100.00
2022-08-29T03:17:39.318Z,100.00
2022-08-29T03:20:07.485Z,100.00
2022-08-29T03:22:34.673Z,100.00
2022-08-29T03:25:02.889Z,100.00
2022-08-29T03:27:32.966Z,100.00
2022-08-29T03:29:59.510Z,100.00
2022-08-29T03:32:26.521Z,100.00
2022-08-29T03:34:54.152Z,100.00
2022-08-29T03:37:21.057Z,100.00
2022-08-29T03:39:47.552Z,100.00
2022-08-29T03:42:13.983Z,100.00
2022-08-29T03:44:41.321Z,100.00
2022-08-29T03:47:08.285Z,100.00
2022-08-29T03:49:34.853Z,100.00
2022-08-29T03:52:01.738Z,100.00
2022-08-29T03:54:28.994Z,100.00
2022-08-29T03:56:56.484Z,100.00
2022-08-29T03:59:23.069Z,100.00
2022-08-29T04:01:50.625Z,100.00
2022-08-29T04:04:37.909Z,100.00
2022-08-29T04:07:06.313Z,100.00
2022-08-29T04:09:32.862Z,100.00
2022-08-29T04:11:59.355Z,100.00
2022-08-29T04:14:26.421Z,100.00
2022-08-29T04:16:52.791Z,100.00
2022-08-29T04:19:20.464Z,100.00
2022-08-29T04:21:48.696Z,100.00
2022-08-29T04:24:16.501Z,100.00
2022-08-29T04:26:42.912Z,100.00
2022-08-29T04:29:11.236Z,100.00
2022-08-29T04:31:38.743Z,100.00
2022-08-29T04:34:07.531Z,100.00
2022-08-29T04:36:35.810Z,100.00
2022-08-29T04:39:02.316Z,100.00
2022-08-29T04:41:28.740Z,100.00
2022-08-29T04:43:55.124Z,100.00
2022-08-29T04:46:23.879Z,100.00
2022-08-29T04:48:52.013Z,100.00
2022-08-29T04:51:18.416Z,100.00
2022-08-29T04:53:44.851Z,100.00
2022-08-29T04:56:12.424Z,100.00
2022-08-29T04:58:41.997Z,100.00
2022-08-29T05:01:15.742Z,100.00
2022-08-29T05:03:42.492Z,100.00
2022-08-29T05:06:12.269Z,100.00
2022-08-29T05:08:40.605Z,100.00
2022-08-29T05:11:11.641Z,100.00
2022-08-29T05:13:38.409Z,100.00
2022-08-29T05:16:09.680Z,100.00
2022-08-29T05:18:36.301Z,100.00
2022-08-29T05:21:03.276Z,100.00
2022-08-29T05:23:30.284Z,100.00
2022-08-29T05:26:03.717Z,100.00
2022-08-29T05:28:32.448Z,100.00
2022-08-29T05:31:00.020Z,100.00
2022-08-29T05:33:30.254Z,100.00
2022-08-29T05:35:58.124Z,100.00
2022-08-29T05:38:24.685Z,100.00
2022-08-29T05:40:51.082Z,100.00
2022-08-29T05:43:17.608Z,100.00
2022-08-29T05:45:44.406Z,100.00
2022-08-29T05:48:11.060Z,100.00
2022-08-29T05:50:42.364Z,100.00
2022-08-29T05:53:10.407Z,100.00
2022-08-29T05:55:44.069Z,100.00
2022-08-29T05:58:12.043Z,100.00
2022-08-29T06:00:44.239Z,100.00
2022-08-29T06:03:11.721Z,99.13
2022-08-29T06:05:39.421Z,98.44
2022-08-29T06:08:07.029Z,97.78
2022-08-29T06:10:34.446Z,96.59
2022-08-29T06:13:00.838Z,95.26
2022-08-29T06:15:29.657Z,93.64
2022-08-29T06:17:56.125Z,93.01
2022-08-29T06:20:22.621Z,91.02
2022-08-29T06:22:49.207Z,90.38
2022-08-29T06:25:38.526Z,92.20
2022-08-29T06:28:02.570Z,91.32
2022-08-29T06:30:32.451Z,91.47
2022-08-29T06:32:59.950Z,91.54
2022-08-29T06:35:26.533Z,89.41
2022-08-29T06:37:52.904Z,88.13
2022-08-29T06:40:20.738Z,88.06
2022-08-29T06:42:47.221Z,88.40
2022-08-29T06:45:13.674Z,88.50
2022-08-29T06:47:40.046Z,88.77
2022-08-29T06:50:07.065Z,88.96
2022-08-29T06:52:33.511Z,88.46
2022-08-29T06:55:02.310Z,87.83
2022-08-29T06:57:28.777Z,89.10
2022-08-29T06:59:55.190Z,88.15
2022-08-29T07:02:21.642Z,86.56
2022-08-29T07:04:48.153Z,87.11
2022-08-29T07:07:14.626Z,85.94
2022-08-29T07:09:41.125Z,84.67
2022-08-29T07:12:07.533Z,83.74
2022-08-29T07:14:34.015Z,83.19
2022-08-29T07:17:00.643Z,82.84
2022-08-29T07:19:27.430Z,82.94
2022-08-29T07:21:54.287Z,82.27
2022-08-29T07:24:25.064Z,80.68
2022-08-29T07:26:51.625Z,79.49
2022-08-29T07:29:20.929Z,79.47
2022-08-29T07:31:48.294Z,78.63
2022-08-29T07:34:15.858Z,77.38
2022-08-29T07:36:42.781Z,77.39
2022-08-29T07:39:13.333Z,77.01
2022-08-29T07:41:41.354Z,77.02
2022-08-29T07:44:09.351Z,76.06
2022-08-29T07:46:35.750Z,75.52
2022-08-29T07:49:02.141Z,74.96
2022-08-29T07:51:28.590Z,74.34
2022-08-29T07:53:56.284Z,73.62
2022-08-29T07:56:31.565Z,73.75
2022-08-29T07:59:01.151Z,73.21
2022-08-29T08:01:28.036Z,73.05
2022-08-29T08:03:55.331Z,71.50
2022-08-29T08:06:27.088Z,70.41
2022-08-29T08:08:54.454Z,68.85
2022-08-29T08:11:22.043Z,67.64
2022-08-29T08:13:49.143Z,67.40
2022-08-29T08:16:18.813Z,66.47
2022-08-29T08:18:45.244Z,67.45
2022-08-29T08:21:12.778Z,66.53
2022-08-29T08:23:40.365Z,66.21
2022-08-29T08:26:08.130Z,66.26
2022-08-29T08:28:34.774Z,65.11
2022-08-29T08:31:05.955Z,64.17
2022-08-29T08:33:35.510Z,63.05
2022-08-29T08:36:04.190Z,63.19
2022-08-29T08:38:31.361Z,62.24
2022-08-29T08:41:26.898Z,63.13
2022-08-29T08:43:56.630Z,60.62
2022-08-29T08:46:36.328Z,60.79
2022-08-29T08:49:07.933Z,60.69
2022-08-29T08:51:37.299Z,61.13
2022-08-29T08:54:08.477Z,61.19
2022-08-29T08:56:42.047Z,60.84
2022-08-29T08:59:16.241Z,60.46
2022-08-29T09:02:07.226Z,60.16
2022-08-29T09:05:02.075Z,60.14
2022-08-29T09:07:49.418Z,60.76
2022-08-29T09:10:45.805Z,60.77
2022-08-29T09:13:39.836Z,58.71
2022-08-29T09:16:16.162Z,58.02
2022-08-29T09:18:44.398Z,58.92
2022-08-29T09:21:40.128Z,58.16
2022-08-29T09:24:13.579Z,58.67
2022-08-29T09:26:40.722Z,58.83
2022-08-29T09:29:10.108Z,57.72
2022-08-29T09:31:37.513Z,58.40
2022-08-29T09:34:13.201Z,57.74
2022-08-29T09:36:48.715Z,56.68
2022-08-29T09:39:22.031Z,56.71
2022-08-29T09:41:53.093Z,56.74
2022-08-29T09:44:40.763Z,56.87
2022-08-29T09:47:14.488Z,55.89
2022-08-29T09:50:00.038Z,53.61
2022-08-29T09:52:26.472Z,55.30
2022-08-29T09:54:52.870Z,55.06
2022-08-29T09:57:19.166Z,54.67
2022-08-29T09:59:49.580Z,54.03
2022-08-29T10:02:38.052Z,53.02
2022-08-29T10:05:13.276Z,54.05
2022-08-29T10:07:48.900Z,52.22
2022-08-29T10:10:24.583Z,51.84
2022-08-29T10:12:55.924Z,51.75
2022-08-29T10:15:50.614Z,54.22
2022-08-29T10:18:27.267Z,52.98
2022-08-29T10:21:02.721Z,54.16
2022-08-29T10:23:34.830Z,53.90
2022-08-29T10:26:09.956Z,52.42
2022-08-29T10:28:48.901Z,51.49
2022-08-29T10:31:42.798Z,51.72
2022-08-29T10:34:26.832Z,51.11
2022-08-29T10:37:01.962Z,52.33
2022-08-29T10:39:45.809Z,50.06
2022-08-29T10:42:19.355Z,50.35
2022-08-29T10:45:02.500Z,50.03
2022-08-29T10:47:52.136Z,49.66
2022-08-29T10:50:45.875Z,50.42
2022-08-29T10:53:38.850Z,49.29
2022-08-29T10:56:24.801Z,49.32
2022-08-29T10:59:03.293Z,48.05
2022-08-29T11:01:42.087Z,48.23
2022-08-29T11:04:17.804Z,49.00
2022-08-29T11:06:51.437Z,48.28
2022-08-29T11:09:30.342Z,48.59
2022-08-29T11:12:07.884Z,47.38
2022-08-29T11:14:45.125Z,47.48
2022-08-29T11:17:14.709Z,46.91
2022-08-29T11:19:57.949Z,47.05
2022-08-29T11:22:35.953Z,47.11
2022-08-29T11:25:22.752Z,48.43
2022-08-29T11:28:03.494Z,47.63
2022-08-29T11:30:58.309Z,48.43
2022-08-29T11:33:38.223Z,47.39
2022-08-29T11:36:28.184Z,46.23
2022-08-29T11:39:11.434Z,46.43
2022-08-29T11:41:48.513Z,44.21
2022-08-29T11:44:27.011Z,43.92
2022-08-29T11:46:56.909Z,43.46
2022-08-29T11:49:38.189Z,43.41
2022-08-29T11:52:11.102Z,42.79
2022-08-29T11:54:38.965Z,45.56
2022-08-29T11:57:05.279Z,44.73
2022-08-29T11:59:44.261Z,44.33
2022-08-29T12:02:31.600Z,45.88
2022-08-29T12:05:16.383Z,43.48
2022-08-29T12:07:54.391Z,43.51
2022-08-29T12:10:23.725Z,43.96
2022-08-29T12:12:57.139Z,44.61
2022-08-29T12:15:32.489Z,44.91
2022-08-29T12:18:22.255Z,46.37
2022-08-29T12:20:50.886Z,46.06
2022-08-29T12:23:35.716Z,46.60
2022-08-29T12:26:22.869Z,47.28
2022-08-29T12:29:01.691Z,46.60
2022-08-29T12:32:02.111Z,46.42
2022-08-29T12:34:54.326Z,46.61
2022-08-29T12:37:39.869Z,44.96
2022-08-29T12:40:16.885Z,44.08
2022-08-29T12:42:58.916Z,45.15
2022-08-29T12:45:27.926Z,45.60
2022-08-29T12:47:58.657Z,46.36
2022-08-29T12:50:34.320Z,45.10
2022-08-29T12:53:05.229Z,45.52
2022-08-29T12:55:39.841Z,45.80
2022-08-29T12:58:08.291Z,45.31
2022-08-29T13:00:35.794Z,43.97
2022-08-29T13:03:16.364Z,44.34
2022-08-29T13:05:43.338Z,43.52
2022-08-29T13:08:36.941Z,43.14
2022-08-29T13:11:09.672Z,41.99
2022-08-29T13:13:36.879Z,42.03
2022-08-29T13:16:07.664Z,42.12
2022-08-29T13:18:44.694Z,41.95
2022-08-29T13:21:27.445Z,41.78
2022-08-29T13:24:03.033Z,41.41
2022-08-29T13:26:34.098Z,40.48
2022-08-29T13:29:03.668Z,40.63
2022-08-29T13:31:36.030Z,41.59
2022-08-29T13:34:11.001Z,40.19
2022-08-29T13:36:40.150Z,40.02
2022-08-29T13:39:25.246Z,39.88
2022-08-29T13:42:17.177Z,39.65
2022-08-29T13:44:46.590Z,39.63
2022-08-29T13:47:19.687Z,38.65
2022-08-29T13:49:46.627Z,39.90
2022-08-29T13:52:14.065Z,39.54
2022-08-29T13:54:42.468Z,39.79
2022-08-29T13:57:17.214Z,38.68
2022-08-29T13:59:44.634Z,38.42
2022-08-29T14:02:12.828Z,39.27
2022-08-29T14:04:41.120Z,40.23
2022-08-29T14:07:28.186Z,39.28
2022-08-29T14:09:55.136Z,38.53
2022-08-29T14:12:33.590Z,37.70
2022-08-29T14:15:09.370Z,37.80
2022-08-29T14:17:39.367Z,38.25
2022-08-29T14:20:09.342Z,38.70
2022-08-29T14:22:36.250Z,38.19
2022-08-29T14:25:03.015Z,37.12
2022-08-29T14:27:29.694Z,37.23
2022-08-29T14:29:56.139Z,37.12
2022-08-29T14:32:24.158Z,37.70
2022-08-29T14:34:53.509Z,37.46
2022-08-29T14:37:20.556Z,37.05
2022-08-29T14:39:48.520Z,37.53
2022-08-29T14:42:16.901Z,36.97
2022-08-29T14:44:43.507Z,37.07
2022-08-29T14:47:10.061Z,36.48
2022-08-29T14:49:36.494Z,37.71
2022-08-29T14:52:03.374Z,38.55
2022-08-29T14:54:29.837Z,39.87
2022-08-29T14:56:56.352Z,38.11
2022-08-29T14:59:25.412Z,38.26
2022-08-29T15:01:54.763Z,39.36
2022-08-29T15:04:35.692Z,40.30
2022-08-29T15:07:03.493Z,38.59
2022-08-29T15:09:29.876Z,38.33
2022-08-29T15:11:56.235Z,39.15
2022-08-29T15:14:22.621Z,38.56
2022-08-29T15:16:49.079Z,37.62
2022-08-29T15:19:53.365Z,37.11
2022-08-29T15:22:01.938Z,37.99
2022-08-29T15:24:28.439Z,37.85
2022-08-29T15:26:57.418Z,38.48
2022-08-29T15:29:24.442Z,38.40
2022-08-29T15:31:56.957Z,38.02
2022-08-29T15:34:27.101Z,37.91
2022-08-29T15:36:54.452Z,38.60
2022-08-29T15:39:21.249Z,39.16
2022-08-29T15:41:47.900Z,38.67
2022-08-29T15:44:14.967Z,38.60
2022-08-29T15:46:50.315Z,39.34
2022-08-29T15:49:20.012Z,39.75
2022-08-29T15:51:48.124Z,39.98
2022-08-29T15:54:15.018Z,40.63
2022-08-29T15:56:42.027Z,40.45
2022-08-29T15:59:10.429Z,39.70
2022-08-29T16:01:41.130Z,40.33
2022-08-29T16:04:10.046Z,40.92
2022-08-29T16:06:37.489Z,40.33
2022-08-29T16:09:15.143Z,40.65
2022-08-29T16:11:43.689Z,40.72
2022-08-29T16:14:46.603Z,40.16
2022-08-29T16:16:57.385Z,40.72
2022-08-29T16:19:23.795Z,41.11
2022-08-29T16:21:50.800Z,39.71
2022-08-29T16:24:17.596Z,40.07
2022-08-29T16:26:45.956Z,40.09
2022-08-29T16:29:12.958Z,39.91
2022-08-29T16:31:39.614Z,39.30
2022-08-29T16:34:05.984Z,39.53
2022-08-29T16:36:32.418Z,39.29
2022-08-29T16:38:58.805Z,39.96
2022-08-29T16:41:26.587Z,39.29
2022-08-29T16:43:53.812Z,38.76
2022-08-29T16:46:23.374Z,39.14
2022-08-29T16:48:52.737Z,39.04
2022-08-29T16:51:22.024Z,39.24
2022-08-29T16:53:48.834Z,39.38
2022-08-29T16:56:16.317Z,40.32
2022-08-29T16:59:00.134Z,39.54
2022-08-29T17:01:36.538Z,40.26
2022-08-29T17:04:06.077Z,39.98
2022-08-29T17:06:32.792Z,40.22
2022-08-29T17:08:59.845Z,40.78
2022-08-29T17:11:26.709Z,40.49
2022-08-29T17:13:53.487Z,41.57
2022-08-29T17:16:20.049Z,42.02
2022-08-29T17:18:46.764Z,41.20
2022-08-29T17:21:14.105Z,40.76
2022-08-29T17:23:40.715Z,41.36
2022-08-29T17:26:10.213Z,42.01
2022-08-29T17:28:38.252Z,41.92
2022-08-29T17:31:05.760Z,41.26
2022-08-29T17:33:32.915Z,42.66
2022-08-29T17:36:00.081Z,42.60
2022-08-29T17:38:27.013Z,43.63
2022-08-29T17:40:58.361Z,43.91
2022-08-29T17:43:25.887Z,43.85
2022-08-29T17:45:52.540Z,43.85
2022-08-29T17:48:20.166Z,43.87
2022-08-29T17:50:47.499Z,43.88
2022-08-29T17:53:14.548Z,44.46
2022-08-29T17:55:41.403Z,44.26
2022-08-29T17:58:08.418Z,43.58
2022-08-29T18:00:35.950Z,44.43
2022-08-29T18:03:02.416Z,44.78
2022-08-29T18:05:28.861Z,45.55
2022-08-29T18:07:56.815Z,45.75
2022-08-29T18:10:24.377Z,45.85
2022-08-29T18:12:50.845Z,46.21
2022-08-29T18:15:17.464Z,46.78
2022-08-29T18:17:45.415Z,46.72
2022-08-29T18:20:19.276Z,47.48
2022-08-29T18:22:47.385Z,47.19
2022-08-29T18:25:14.404Z,46.23
2022-08-29T18:27:43.614Z,46.50
2022-08-29T18:30:13.415Z,47.04
2022-08-29T18:32:41.098Z,47.48
2022-08-29T18:35:08.448Z,47.29
2022-08-29T18:37:34.863Z,47.64
2022-08-29T18:40:02.013Z,48.17
2022-08-29T18:42:40.019Z,47.80
2022-08-29T18:45:08.102Z,48.01
2022-08-29T18:47:34.498Z,47.55
2022-08-29T18:50:19.546Z,47.15
2022-08-29T18:52:51.546Z,47.58
2022-08-29T18:55:18.188Z,47.42
2022-08-29T18:57:46.294Z,47.49
2022-08-29T19:00:13.354Z,48.12
2022-08-29T19:02:39.987Z,48.29
2022-08-29T19:05:06.924Z,48.33
2022-08-29T19:07:33.570Z,48.08
2022-08-29T19:10:00.181Z,48.47
2022-08-29T19:12:26.637Z,48.99
2022-08-29T19:14:53.080Z,48.82
2022-08-29T19:17:19.592Z,49.44
2022-08-29T19:20:10.084Z,49.80
2022-08-29T19:22:38.049Z,49.60
2022-08-29T19:25:06.088Z,49.62
2022-08-29T19:27:43.274Z,50.08
2022-08-29T19:30:13.490Z,50.00
2022-08-29T19:32:40.308Z,50.15
2022-08-29T19:35:07.161Z,50.15
2022-08-29T19:37:33.645Z,50.36
2022-08-29T19:40:00.046Z,50.60
2022-08-29T19:42:27.926Z,50.25
2022-08-29T19:44:54.885Z,50.13
2022-08-29T19:47:22.893Z,50.91
2022-08-29T19:49:50.992Z,50.70
2022-08-29T19:52:17.902Z,51.10
2022-08-29T19:54:44.335Z,51.52
2022-08-29T19:57:13.315Z,51.76
2022-08-29T19:59:42.325Z,51.96
2022-08-29T20:02:10.576Z,52.22
2022-08-29T20:04:37.753Z,51.64
2022-08-29T20:07:05.387Z,52.23
2022-08-29T20:09:31.902Z,52.61
2022-08-29T20:11:59.267Z,52.61
2022-08-29T20:14:25.871Z,52.79
2022-08-29T20:16:52.274Z,53.33
2022-08-29T20:19:21.135Z,53.58
2022-08-29T20:21:49.843Z,53.47
2022-08-29T20:24:17.113Z,54.27
2022-08-29T20:26:46.640Z,54.32
2022-08-29T20:29:13.915Z,54.71
2022-08-29T20:31:40.402Z,54.93
2022-08-29T20:34:07.041Z,55.43
2022-08-29T20:36:52.228Z,55.62
2022-08-29T20:39:20.560Z,55.77
2022-08-29T20:41:52.029Z,55.72
2022-08-29T20:44:20.207Z,56.30
2022-08-29T20:46:47.152Z,56.51
2022-08-29T20:49:16.885Z,56.71
2022-08-29T20:51:44.361Z,56.32
2022-08-29T20:54:15.989Z,56.83
2022-08-29T20:56:42.663Z,56.84
2022-08-29T20:59:10.302Z,57.27
2022-08-29T21:01:38.027Z,57.09
2022-08-29T21:04:24.746Z,57.55
2022-08-29T21:06:55.829Z,57.23
2022-08-29T21:09:22.515Z,57.92
2022-08-29T21:11:49.701Z,57.94
2022-08-29T21:14:16.136Z,57.75
2022-08-29T21:16:42.533Z,57.85
2022-08-29T21:19:10.916Z,57.97
2022-08-29T21:21:39.173Z,58.61
2022-08-29T21:24:06.626Z,58.13
2022-08-29T21:26:33.975Z,57.93
2022-08-29T21:29:01.530Z,58.30
2022-08-29T21:31:28.082Z,58.23
2022-08-29T21:33:54.690Z,58.52
2022-08-29T21:36:25.653Z,58.69
2022-08-29T21:38:54.752Z,59.21
2022-08-29T21:41:22.283Z,59.58
2022-08-29T21:43:48.778Z,60.01
2022-08-29T21:46:21.890Z,59.95
2022-08-29T21:48:55.857Z,60.61
2022-08-29T21:51:23.434Z,60.61
2022-08-29T21:53:51.609Z,60.27
2022-08-29T21:56:18.121Z,60.55
2022-08-29T21:58:47.402Z,60.86
2022-08-29T22:01:14.202Z,60.56
2022-08-29T22:03:40.688Z,60.57
2022-08-29T22:06:09.277Z,61.01
2022-08-29T22:08:37.746Z,61.55
2022-08-29T22:11:18.213Z,61.04
2022-08-29T22:13:44.910Z,60.99
2022-08-29T22:16:30.153Z,61.86
2022-08-29T22:19:12.318Z,62.04
2022-08-29T22:21:44.400Z,61.76
2022-08-29T22:24:12.777Z,62.03
2022-08-29T22:26:40.936Z,62.31
2022-08-29T22:29:11.820Z,62.66
2022-08-29T22:31:38.937Z,62.87
2022-08-29T22:34:09.272Z,62.75
2022-08-29T22:36:35.731Z,62.75
2022-08-29T22:39:02.304Z,64.02
2022-08-29T22:41:28.775Z,65.47
2022-08-29T22:44:31.696Z,65.81
2022-08-29T22:46:43.812Z,66.10
2022-08-29T22:49:13.283Z,67.02
2022-08-29T22:51:40.171Z,67.55
2022-08-29T22:54:25.084Z,66.58
2022-08-29T22:56:54.384Z,66.20
2022-08-29T22:59:21.230Z,66.03
2022-08-29T23:01:47.709Z,65.85
2022-08-29T23:04:14.569Z,66.44
2022-08-29T23:06:40.952Z,67.25
2022-08-29T23:09:07.874Z,67.47
2022-08-29T23:11:34.509Z,67.21
2022-08-29T23:14:01.128Z,67.28
2022-08-29T23:16:29.116Z,68.11
2022-08-29T23:18:55.547Z,68.09
2022-08-29T23:21:22.877Z,68.04
2022-08-29T23:23:50.551Z,68.66
2022-08-29T23:26:18.232Z,69.47
2022-08-29T23:28:44.929Z,68.93
2022-08-29T23:31:11.516Z,69.72
2022-08-29T23:33:37.974Z,69.78
2022-08-29T23:36:04.645Z,70.37
2022-08-29T23:38:31.393Z,70.29
2022-08-29T23:40:58.361Z,71.51
2022-08-29T23:43:25.410Z,70.82
2022-08-29T23:45:51.996Z,71.22
2022-08-29T23:48:18.448Z,71.42
2022-08-29T23:50:53.247Z,71.54
2022-08-29T23:53:21.093Z,71.71
2022-08-29T23:55:48.029Z,71.49
2022-08-29T23:58:15.053Z,71.61
